Skip Navigation

Christman Field Latest Observations

Switch to english unitsOther observation timesWeekly graphs

Date Time
MST
Temp
°C
RH
%
DewPt
°C
Wind
m/s
Dir
°
Gust
m/s
Dir
°
Press
hPa
Solar
W/m^2
Prec
mm
2019-04-24 06:45 9.6 64.3 3.2 0.8 171 1.6 165 840.12 52.2 0.00
2019-04-24 06:40 9.5 64.5 3.1 1.6 166 1.9 154 840.08 45.4 0.00
2019-04-24 06:35 9.3 64.3 2.9 1.6 158 1.9 156 840.06 31.0 0.00
2019-04-24 06:30 9.1 64.0 2.6 1.8 152 2.0 156 839.95 13.6 0.00
2019-04-24 06:25 9.0 64.8 2.7 1.9 152 2.2 156 839.85 33.0 0.00
2019-04-24 06:20 8.9 64.3 2.5 1.6 155 2.2 158 839.78 42.1 0.00
2019-04-24 06:15 8.7 68.8 3.3 0.6 159 1.3 164 839.74 44.2 0.00
2019-04-24 06:10 8.4 70.0 3.3 1.6 166 2.2 173 839.68 46.1 0.00
2019-04-24 06:05 8.1 68.3 2.6 1.3 175 1.8 179 839.64 42.8 0.00
2019-04-24 06:00 8.1 69.3 2.8 1.7 181 2.2 175 839.57 35.8 0.00
2019-04-24 05:55 8.2 65.8 2.2 1.8 171 2.0 154 839.58 30.4 0.00
2019-04-24 05:50 8.0 64.7 1.8 1.8 156 2.2 161 839.52 26.5 0.00
2019-04-24 05:45 8.6 64.8 2.4 0.3 169 1.3 179 839.48 24.2 0.00
2019-04-24 05:40 8.8 64.5 2.5 1.6 293 2.5 306 839.32 23.6 0.00
2019-04-24 05:35 8.0 65.4 1.9 1.9 323 2.5 332 839.28 26.1 0.00
2019-04-24 05:30 7.2 62.1 0.4 0.5 335 2.5 327 839.27 31.3 0.00
2019-04-24 05:25 6.7 67.9 1.2 0.2 110 0.9 116 839.26 18.1 0.00
2019-04-24 05:20 6.4 68.6 1.1 0.4 178 0.9 178 839.26 9.3 0.00
2019-04-24 05:15 6.6 69.2 1.3 1.0 178 1.6 175 839.20 5.1 0.00
2019-04-24 05:10 6.6 69.2 1.3 1.2 172 1.6 165 839.22 3.8 0.00
2019-04-24 05:05 6.8 67.9 1.3 1.0 159 1.6 153 839.26 2.2 0.00
2019-04-24 05:00 6.8 67.7 1.2 1.2 158 1.6 156 839.28 0.9 0.00
2019-04-24 04:55 6.9 68.3 1.5 1.6 141 2.2 136 839.29 0.4 0.00
2019-04-24 04:50 7.5 67.3 1.9 1.4 113 2.0 101 839.32 0.1 0.00
2019-04-24 04:45 8.4 63.1 1.8 1.1 127 1.4 86 839.35 0.0 0.00
2019-04-24 04:40 8.1 58.0 0.4 0.6 95 1.2 95 839.30 0.0 0.00
2019-04-24 04:35 8.2 61.5 1.2 0.9 135 1.9 16 839.28 0.0 0.00
2019-04-24 04:30 8.5 58.0 0.7 1.6 18 2.2 1 839.27 0.0 0.00
2019-04-24 04:25 8.6 57.8 0.7 1.7 350 2.2 9 839.28 0.0 0.00
2019-04-24 04:20 8.4 58.5 0.7 2.2 11 3.1 9 839.31 0.0 0.00